Time;durP1;ratioP1;P1;durP2;ratioP2;P2;SDS_P1;SDS_P2;PMS_P1;PMS_P2;Temp;Humidity;BMP_temperature;BMP_pressure;BME280_temperature;BME280_humidity;BME280_pressure;Samples;Min_cycle;Max_cycle;Signal;HPM_P1;HPM_P2
2022/07/22 00:01:10;;;;;;;10.63;5.63;;;;;;;14.87;100.00;102051.94;5087883;28;20556;-79
2022/07/22 00:03:35;;;;;;;15.40;6.20;;;;;;;14.88;100.00;102056.38;5085783;28;20506;-78
2022/07/22 00:06:00;;;;;;;10.27;5.53;;;;;;;14.80;100.00;102041.03;5086625;28;20094;-78
2022/07/22 00:08:26;;;;;;;12.53;6.10;;;;;;;14.84;100.00;102049.66;5083873;28;20065;-82
2022/07/22 00:10:51;;;;;;;16.33;6.37;;;;;;;14.79;100.00;102047.53;5066304;28;20472;-79
2022/07/22 00:13:16;;;;;;;11.43;6.03;;;;;;;14.78;100.00;102042.31;5085332;28;20027;-79
2022/07/22 00:15:42;;;;;;;13.70;6.57;;;;;;;14.76;100.00;102042.50;5083681;28;20369;-79
2022/07/22 00:18:07;;;;;;;12.57;5.93;;;;;;;14.66;100.00;102044.81;5067296;28;20047;-79
2022/07/22 00:20:32;;;;;;;11.83;5.83;;;;;;;14.67;100.00;102047.34;5081383;28;20160;-79
2022/07/22 00:22:58;;;;;;;10.17;6.13;;;;;;;14.64;100.00;102042.28;5062532;28;20070;-79
2022/07/22 00:25:23;;;;;;;11.23;5.87;;;;;;;14.56;100.00;102039.75;5083464;28;20039;-78
2022/07/22 00:27:49;;;;;;;10.37;5.73;;;;;;;14.59;100.00;102042.09;5085094;28;20027;-79
2022/07/22 00:30:14;;;;;;;11.63;5.93;;;;;;;14.61;100.00;102033.69;5089008;28;20747;-80
2022/07/22 00:32:40;;;;;;;11.77;6.27;;;;;;;14.69;100.00;102038.97;5078023;28;20456;-79
2022/07/22 00:35:06;;;;;;;13.33;5.87;;;;;;;14.63;100.00;102042.50;5080237;28;20040;-79
2022/07/22 00:37:31;;;;;;;11.83;5.70;;;;;;;14.59;100.00;102033.91;5085843;28;20039;-80
2022/07/22 00:39:56;;;;;;;10.80;5.97;;;;;;;14.55;100.00;102035.38;5084339;28;20040;-79
2022/07/22 00:42:22;;;;;;;12.17;5.80;;;;;;;14.53;100.00;102038.28;5084603;28;20028;-79
2022/07/22 00:44:47;;;;;;;11.70;5.87;;;;;;;14.53;100.00;102030.09;5083634;28;21543;-79
2022/07/22 00:47:13;;;;;;;10.37;5.20;;;;;;;14.48;100.00;102023.59;5085630;28;20024;-79
2022/07/22 00:49:39;;;;;;;12.70;5.93;;;;;;;14.55;100.00;102034.50;5082554;28;20042;-80
2022/07/22 00:52:05;;;;;;;10.77;5.90;;;;;;;14.50;100.00;102026.97;5086906;28;20699;-80
2022/07/22 00:54:32;;;;;;;16.20;6.90;;;;;;;14.55;100.00;102031.78;5084068;28;20032;-80
2022/07/22 00:56:57;;;;;;;15.20;6.67;;;;;;;14.59;100.00;102033.91;5085287;28;20379;-79
2022/07/22 00:59:23;;;;;;;14.37;7.40;;;;;;;14.58;100.00;102024.03;5083922;28;20031;-80
2022/07/22 01:01:49;;;;;;;18.67;6.63;;;;;;;14.61;100.00;102034.50;5058845;28;20388;-79
2022/07/22 01:04:14;;;;;;;12.57;6.80;;;;;;;14.65;100.00;102029.53;5092616;28;20056;-79
2022/07/22 01:06:44;;;;;;;14.20;6.47;;;;;;;14.67;100.00;102028.25;5089912;28;20032;-81
2022/07/22 01:09:10;;;;;;;14.87;6.37;;;;;;;14.70;100.00;102032.47;5087498;28;20395;-79
2022/07/22 01:11:35;;;;;;;16.73;6.90;;;;;;;14.75;100.00;102031.81;5085463;28;20059;-81
2022/07/22 01:14:01;;;;;;;15.63;6.93;;;;;;;14.74;100.00;102030.13;5065852;28;20036;-81
2022/07/22 01:16:26;;;;;;;14.10;6.60;;;;;;;14.76;100.00;102022.59;5064324;28;20456;-81
2022/07/22 01:18:52;;;;;;;17.23;6.43;;;;;;;14.79;100.00;102024.88;5085313;28;20524;-80
2022/07/22 01:21:17;;;;;;;14.10;6.43;;;;;;;14.79;100.00;102019.44;5080567;28;20032;-79
2022/07/22 01:23:43;;;;;;;13.57;6.40;;;;;;;14.85;100.00;102018.59;5080026;28;20171;-79
2022/07/22 01:26:09;;;;;;;14.37;7.10;;;;;;;14.89;100.00;102014.41;5085594;28;20115;-79
2022/07/22 01:28:35;;;;;;;17.20;6.80;;;;;;;14.90;100.00;102010.59;5086596;28;20165;-79
2022/07/22 01:31:01;;;;;;;14.87;6.50;;;;;;;14.90;100.00;102018.78;5087218;28;20040;-79
2022/07/22 01:33:26;;;;;;;16.30;7.10;;;;;;;14.90;100.00;102015.22;5088683;28;20047;-79
2022/07/22 01:35:52;;;;;;;13.67;6.30;;;;;;;14.90;100.00;102017.94;5090074;28;20024;-79
2022/07/22 01:38:18;;;;;;;15.10;6.77;;;;;;;14.95;100.00;102018.97;5074042;28;20847;-79
2022/07/22 01:40:44;;;;;;;14.90;7.10;;;;;;;14.94;100.00;102019.19;5086744;28;20028;-79
2022/07/22 01:43:10;;;;;;;14.57;6.73;;;;;;;14.97;100.00;102016.91;5088512;28;20040;-80
2022/07/22 01:45:35;;;;;;;16.00;6.80;;;;;;;15.01;100.00;102020.88;5087349;28;20636;-79
2022/07/22 01:48:01;;;;;;;13.77;5.90;;;;;;;14.96;100.00;102015.22;5087614;28;20388;-79
2022/07/22 01:50:26;;;;;;;15.73;6.23;;;;;;;14.98;100.00;102020.47;5088766;28;20039;-80
2022/07/22 01:52:52;;;;;;;12.90;6.27;;;;;;;14.97;100.00;102016.91;5088302;28;20024;-79
2022/07/22 01:55:18;;;;;;;17.37;6.53;;;;;;;14.96;100.00;102015.22;5088800;28;20480;-79
2022/07/22 01:57:43;;;;;;;12.00;6.03;;;;;;;14.96;100.00;102009.75;5085340;28;20047;-79
2022/07/22 02:00:10;;;;;;;11.97;6.23;;;;;;;15.03;100.00;102015.19;5087159;28;20111;-80
2022/07/22 02:02:35;;;;;;;16.43;6.57;;;;;;;14.98;100.00;102017.72;5085236;28;20035;-79
2022/07/22 02:05:03;;;;;;;14.87;6.60;;;;;;;14.97;100.00;102022.34;5085702;28;20058;-81
2022/07/22 02:07:29;;;;;;;14.33;6.80;;;;;;;15.05;100.00;102020.44;5088375;28;20169;-78
2022/07/22 02:09:54;;;;;;;13.47;6.60;;;;;;;15.08;100.00;102025.47;5088728;28;20107;-79
2022/07/22 02:12:19;;;;;;;13.93;6.57;;;;;;;15.03;100.00;102013.31;5087700;28;20238;-80
2022/07/22 02:14:52;;;;;;;13.90;6.13;;;;;;;15.08;100.00;102014.56;5087795;28;20047;-79
2022/07/22 02:17:17;;;;;;;14.43;6.27;;;;;;;15.09;100.00;102013.50;5078109;28;20039;-80
2022/07/22 02:19:43;;;;;;;9.43;6.07;;;;;;;15.06;100.00;102011.22;5087551;28;20106;-81
2022/07/22 02:22:09;;;;;;;13.17;5.80;;;;;;;15.02;100.00;102011.63;5081024;28;20036;-80
2022/07/22 02:24:34;;;;;;;16.67;6.03;;;;;;;15.02;100.00;102008.06;5071036;28;20085;-80
2022/07/22 02:27:00;;;;;;;12.97;6.57;;;;;;;15.12;100.00;102019.38;5088515;28;20035;-79
2022/07/22 02:29:26;;;;;;;14.33;6.30;;;;;;;15.10;100.00;102016.03;5084720;28;20734;-80
2022/07/22 02:31:52;;;;;;;13.97;6.47;;;;;;;15.15;100.00;102023.56;5088666;28;20565;-79
2022/07/22 02:34:17;;;;;;;15.60;6.53;;;;;;;15.17;100.00;102016.00;5087096;28;20023;-80
2022/07/22 02:36:43;;;;;;;16.93;6.20;;;;;;;15.16;100.00;102019.78;5086095;28;20040;-79
2022/07/22 02:39:08;;;;;;;11.77;5.80;;;;;;;15.16;100.00;102004.25;5086682;28;20039;-79
2022/07/22 02:41:33;;;;;;;14.10;6.07;;;;;;;15.18;100.00;102004.03;5087806;28;20482;-79
2022/07/22 02:43:59;;;;;;;13.83;6.20;;;;;;;15.26;100.00;102008.41;5086060;28;20035;-81
2022/07/22 02:46:25;;;;;;;14.93;6.23;;;;;;;15.29;100.00;102008.81;5086946;28;20023;-79
2022/07/22 02:48:51;;;;;;;13.90;6.27;;;;;;;15.28;100.00;102012.59;5086155;28;20063;-79
2022/07/22 02:51:16;;;;;;;15.47;6.20;;;;;;;15.23;100.00;102019.75;5085663;28;20067;-79
2022/07/22 02:53:41;;;;;;;14.03;6.83;;;;;;;15.26;100.00;102011.13;5086975;28;20036;-79
2022/07/22 02:56:08;;;;;;;19.07;6.97;;;;;;;15.16;100.00;102001.53;5084559;28;20035;-79
2022/07/22 02:58:33;;;;;;;13.03;6.17;;;;;;;15.21;100.00;102003.59;5087492;28;20059;-79
2022/07/22 03:00:59;;;;;;;13.83;6.50;;;;;;;15.27;100.00;102015.56;5085256;28;20042;-79
2022/07/22 03:03:24;;;;;;;15.03;6.63;;;;;;;15.27;100.00;102016.41;5068144;28;20032;-79
2022/07/22 03:05:49;;;;;;;13.97;6.27;;;;;;;15.27;100.00;102016.41;5090233;28;20059;-79
2022/07/22 03:08:15;;;;;;;15.57;5.97;;;;;;;15.31;100.00;102012.19;5085776;28;20436;-79
2022/07/22 03:10:41;;;;;;;14.40;6.10;;;;;;;15.27;100.00;102010.94;5089295;28;20439;-79
2022/07/22 03:13:06;;;;;;;14.37;6.27;;;;;;;15.29;100.00;102000.63;5085666;28;20031;-79
2022/07/22 03:15:32;;;;;;;18.20;6.83;;;;;;;15.33;100.00;102009.25;5085900;28;20034;-79
2022/07/22 03:17:57;;;;;;;23.23;6.80;;;;;;;15.41;100.00;102005.41;5086338;28;20040;-79
2022/07/22 03:20:22;;;;;;;16.10;6.43;;;;;;;15.28;100.00;102007.13;5087933;28;20028;-78
2022/07/22 03:22:48;;;;;;;13.93;6.07;;;;;;;15.29;100.00;102013.47;5083990;28;20028;-79
2022/07/22 03:25:13;;;;;;;13.17;6.20;;;;;;;15.26;100.00;101998.34;5085723;28;20028;-79
2022/07/22 03:27:39;;;;;;;14.47;6.30;;;;;;;15.34;100.00;101998.09;5086682;28;20472;-79
2022/07/22 03:30:05;;;;;;;15.13;6.60;;;;;;;15.28;100.00;101995.41;5085926;28;20781;-80
2022/07/22 03:32:30;;;;;;;16.60;6.60;;;;;;;15.27;100.00;101994.56;5088145;28;20043;-79
2022/07/22 03:34:56;;;;;;;14.23;5.90;;;;;;;15.27;100.00;101988.25;5083785;28;20043;-79
2022/07/22 03:37:21;;;;;;;15.07;6.50;;;;;;;15.29;100.00;101986.97;5090008;28;20111;-79
2022/07/22 03:39:47;;;;;;;15.37;6.10;;;;;;;15.31;100.00;101987.63;5085510;28;20036;-79
2022/07/22 03:42:12;;;;;;;14.47;6.30;;;;;;;15.32;100.00;101983.81;5085548;28;20209;-79
2022/07/22 03:44:38;;;;;;;13.57;5.70;;;;;;;15.27;100.00;101983.66;5081405;28;20039;-80
2022/07/22 03:47:03;;;;;;;14.90;6.40;;;;;;;15.33;100.00;101993.69;5092604;28;20078;-79
2022/07/22 03:49:31;;;;;;;16.33;6.33;;;;;;;15.33;100.00;101993.69;5083203;28;20036;-79
2022/07/22 03:51:56;;;;;;;14.23;6.20;;;;;;;15.29;100.00;101988.88;5085253;28;20048;-80
2022/07/22 03:54:22;;;;;;;13.57;6.20;;;;;;;15.28;100.00;101990.75;5080754;28;20060;-79
2022/07/22 03:56:47;;;;;;;13.00;6.00;;;;;;;15.30;100.00;101996.00;5068230;28;20023;-80
2022/07/22 03:59:12;;;;;;;9.60;6.17;;;;;;;15.27;100.00;101994.56;5064091;28;20046;-79
2022/07/22 04:01:38;;;;;;;14.50;6.13;;;;;;;15.29;100.00;101997.06;5084219;28;20028;-79
2022/07/22 04:04:03;;;;;;;12.33;6.00;;;;;;;15.30;100.00;101990.53;5087462;28;20130;-79
2022/07/22 04:06:33;;;;;;;16.37;6.57;;;;;;;15.25;100.00;102006.75;5087341;28;20116;-79
2022/07/22 04:08:58;;;;;;;16.03;6.53;;;;;;;15.24;100.00;102005.91;5085261;28;20032;-79
2022/07/22 04:11:23;;;;;;;15.50;6.20;;;;;;;15.25;100.00;102004.03;5084770;28;20044;-79
2022/07/22 04:13:49;;;;;;;14.70;6.50;;;;;;;15.27;100.00;102001.91;5079682;28;20039;-79
2022/07/22 04:16:14;;;;;;;13.70;6.23;;;;;;;15.22;100.00;101998.97;5086648;28;20110;-79
2022/07/22 04:18:40;;;;;;;14.43;6.40;;;;;;;15.31;100.00;102001.28;5076813;28;20050;-79
2022/07/22 04:21:05;;;;;;;12.27;6.20;;;;;;;15.32;100.00;102005.66;5080124;28;20122;-79
2022/07/22 04:23:31;;;;;;;11.03;5.87;;;;;;;15.33;100.00;102006.50;5084512;28;20468;-80
2022/07/22 04:25:57;;;;;;;12.27;5.87;;;;;;;15.36;100.00;102011.53;5083997;28;22835;-79
2022/07/22 04:28:22;;;;;;;13.50;6.00;;;;;;;15.28;100.00;102006.31;5083459;28;20075;-80
2022/07/22 04:30:47;;;;;;;16.17;6.37;;;;;;;15.37;100.00;102010.50;5085858;28;20094;-79
2022/07/22 04:33:13;;;;;;;10.27;5.73;;;;;;;15.39;100.00;102008.38;5084888;28;20040;-79
2022/07/22 04:35:38;;;;;;;16.10;6.50;;;;;;;15.46;100.00;102003.75;5086698;28;20463;-79
2022/07/22 04:38:04;;;;;;;13.80;6.30;;;;;;;15.49;100.00;101988.78;5089999;28;20036;-79
2022/07/22 04:40:29;;;;;;;11.20;6.17;;;;;;;15.43;100.00;101981.47;5066288;28;20068;-79
2022/07/22 04:42:54;;;;;;;12.17;6.27;;;;;;;15.47;100.00;101993.63;5086473;28;20031;-79
2022/07/22 04:45:20;;;;;;;12.67;6.17;;;;;;;15.43;100.00;101992.41;5083699;28;20023;-78
2022/07/22 04:47:45;;;;;;;11.53;6.20;;;;;;;15.44;100.00;101994.09;5083566;28;20490;-79
2022/07/22 04:50:11;;;;;;;12.77;5.87;;;;;;;15.43;100.00;101987.75;5081881;28;20032;-79
2022/07/22 04:52:36;;;;;;;13.83;5.80;;;;;;;15.46;100.00;101987.34;5088777;28;20629;-79
2022/07/22 04:55:02;;;;;;;13.30;5.63;;;;;;;15.47;100.00;101990.91;5083974;28;20529;-79
2022/07/22 04:57:28;;;;;;;11.27;5.70;;;;;;;15.46;100.00;101986.50;5066038;28;20078;-80
2022/07/22 04:59:53;;;;;;;13.57;5.73;;;;;;;15.62;100.00;101994.19;5085483;28;20032;-79
2022/07/22 05:02:19;;;;;;;13.00;6.23;;;;;;;15.60;100.00;101990.84;5083346;28;20490;-79
2022/07/22 05:04:45;;;;;;;14.73;6.00;;;;;;;15.56;100.00;101988.75;5081792;28;20123;-79
2022/07/22 05:07:10;;;;;;;16.27;5.90;;;;;;;15.63;100.00;101986.84;5085805;28;20163;-79
2022/07/22 05:09:36;;;;;;;14.50;6.07;;;;;;;15.62;100.00;101983.25;5083002;28;20063;-79
2022/07/22 05:12:03;;;;;;;13.87;5.57;;;;;;;15.66;100.00;101986.41;5083408;28;20025;-80
2022/07/22 05:14:29;;;;;;;14.67;5.40;;;;;;;15.74;100.00;101988.88;5084049;28;22906;-79
2022/07/22 05:16:54;;;;;;;13.97;5.63;;;;;;;15.77;100.00;101985.72;5084791;28;20426;-79
2022/07/22 05:19:19;;;;;;;14.33;5.70;;;;;;;15.85;100.00;101990.13;5066045;28;20039;-79
2022/07/22 05:21:45;;;;;;;13.33;5.17;;;;;;;15.83;99.92;101987.63;5083601;28;20044;-79
2022/07/22 05:24:10;;;;;;;13.07;6.30;;;;;;;15.93;100.00;101986.31;5081321;28;22864;-80
2022/07/22 05:26:35;;;;;;;13.93;5.80;;;;;;;16.04;100.00;101985.59;5083871;28;20464;-79
2022/07/22 05:29:01;;;;;;;13.97;5.90;;;;;;;16.10;100.00;101995.66;5084126;28;20047;-79
2022/07/22 05:31:26;;;;;;;13.93;5.57;;;;;;;15.97;100.00;101991.09;5084237;28;20533;-79
2022/07/22 05:33:51;;;;;;;12.47;5.67;;;;;;;16.00;99.54;101998.84;5083884;28;20045;-79
2022/07/22 05:36:18;;;;;;;10.97;5.23;;;;;;;16.15;100.00;101993.06;5082738;28;20028;-79
2022/07/22 05:38:43;;;;;;;13.87;4.97;;;;;;;16.08;98.11;101994.19;5085145;28;20036;-80
2022/07/22 05:41:08;;;;;;;13.07;4.73;;;;;;;16.11;96.92;102000.03;5078902;28;20031;-79
2022/07/22 05:43:34;;;;;;;13.87;5.17;;;;;;;16.08;96.44;101977.78;5086782;28;20020;-79
2022/07/22 05:45:59;;;;;;;10.17;4.50;;;;;;;16.18;96.35;101992.66;5063857;28;20028;-80
2022/07/22 05:48:24;;;;;;;10.90;4.73;;;;;;;16.25;96.10;101999.94;5087269;28;20085;-79
2022/07/22 05:50:50;;;;;;;12.37;4.83;;;;;;;16.25;96.20;101989.88;5083404;28;20020;-82
2022/07/22 05:53:16;;;;;;;11.27;5.10;;;;;;;16.32;96.13;102001.59;5066273;28;20040;-79
2022/07/22 05:55:41;;;;;;;12.40;4.63;;;;;;;16.29;94.38;102004.78;5071301;28;20038;-79
2022/07/22 05:58:07;;;;;;;10.83;4.53;;;;;;;16.40;96.72;101996.88;5064789;28;20462;-79
2022/07/22 06:00:32;;;;;;;13.73;5.40;;;;;;;16.31;95.24;101986.22;5079049;28;20028;-80
2022/07/22 06:02:57;;;;;;;13.43;5.00;;;;;;;16.43;96.66;101991.81;5084410;28;20127;-79
2022/07/22 06:05:24;;;;;;;11.67;4.90;;;;;;;16.48;97.14;101993.88;5082971;28;20052;-80
2022/07/22 06:07:49;;;;;;;13.53;5.17;;;;;;;16.43;95.09;101990.97;5064406;28;20043;-80
2022/07/22 06:10:14;;;;;;;11.43;5.60;;;;;;;16.46;95.83;101985.06;5083427;28;20038;-79
2022/07/22 06:12:40;;;;;;;11.60;5.40;;;;;;;16.54;95.88;101990.25;5085113;28;20029;-79
2022/07/22 06:15:05;;;;;;;10.20;5.17;;;;;;;16.51;94.53;101983.34;5089205;28;20371;-79
2022/07/22 06:17:31;;;;;;;16.50;5.90;;;;;;;16.62;95.48;101987.25;5076091;28;20040;-79
2022/07/22 06:19:57;;;;;;;14.10;5.23;;;;;;;16.71;94.84;102002.31;5085773;28;20383;-78
2022/07/22 06:22:22;;;;;;;11.20;5.13;;;;;;;16.73;93.86;102001.22;5088757;28;20111;-79
2022/07/22 06:24:48;;;;;;;9.07;5.17;;;;;;;16.82;93.52;102003.47;5075627;28;20040;-79
2022/07/22 06:27:14;;;;;;;13.63;5.27;;;;;;;16.84;91.20;102003.25;5082768;28;20401;-81
2022/07/22 06:29:40;;;;;;;12.10;5.13;;;;;;;16.88;89.74;102002.56;5087750;28;20035;-80
2022/07/22 06:32:06;;;;;;;10.60;5.60;;;;;;;16.95;90.01;101998.97;5081145;28;20020;-79
2022/07/22 06:34:31;;;;;;;12.30;5.50;;;;;;;17.01;90.29;102009.00;5093691;28;20525;-79
2022/07/22 06:36:57;;;;;;;12.07;5.10;;;;;;;17.06;89.73;102003.69;5081092;28;20410;-80
2022/07/22 06:39:22;;;;;;;12.50;5.33;;;;;;;17.13;88.76;102003.59;5084916;28;20134;-79
2022/07/22 06:41:47;;;;;;;9.03;5.13;;;;;;;17.17;87.66;102002.91;5080789;28;20127;-79
2022/07/22 06:44:13;;;;;;;8.43;4.87;;;;;;;17.34;88.71;102000.41;5062747;28;20067;-79
2022/07/22 06:46:38;;;;;;;11.37;5.13;;;;;;;17.30;87.09;101993.72;5080635;28;20149;-79
2022/07/22 06:49:04;;;;;;;10.97;4.90;;;;;;;17.49;90.11;101999.19;5081234;28;20079;-80
2022/07/22 06:51:29;;;;;;;9.93;4.47;;;;;;;17.36;85.38;101994.69;5080968;28;20494;-79
2022/07/22 06:53:55;;;;;;;9.73;4.50;;;;;;;17.37;83.64;101999.94;5081184;28;20064;-79
2022/07/22 06:56:20;;;;;;;10.70;4.63;;;;;;;17.60;85.85;101995.66;5081276;28;20063;-80
2022/07/22 06:58:46;;;;;;;9.00;4.60;;;;;;;17.65;84.86;101993.06;5080866;28;20142;-80
2022/07/22 07:01:11;;;;;;;10.17;5.10;;;;;;;17.64;84.63;101999.63;5080943;28;20395;-80
2022/07/22 07:03:36;;;;;;;10.07;5.10;;;;;;;17.67;84.53;101996.41;5079743;28;20433;-81
2022/07/22 07:06:03;;;;;;;11.90;5.20;;;;;;;17.72;84.73;102001.22;5080518;28;20161;-80
2022/07/22 07:08:28;;;;;;;10.68;4.72;;;;;;;17.68;82.95;101998.09;5080774;28;20032;-80
2022/07/22 07:10:53;;;;;;;10.52;5.25;;;;;;;17.79;84.33;101999.22;5080769;28;20063;-82
2022/07/22 07:13:19;;;;;;;12.00;5.30;;;;;;;17.79;84.25;102001.09;5080427;28;20082;-81
2022/07/22 07:15:44;;;;;;;9.00;5.45;;;;;;;17.90;86.56;102008.53;5080759;28;20024;-81
2022/07/22 07:18:10;;;;;;;8.77;4.88;;;;;;;17.96;83.90;102004.88;5080527;28;20040;-82
2022/07/22 07:20:36;;;;;;;8.77;5.05;;;;;;;17.89;83.17;102001.38;5061997;28;20035;-80
2022/07/22 07:23:02;;;;;;;8.38;4.53;;;;;;;17.74;78.65;101990.00;5060887;28;20036;-80
2022/07/22 07:25:27;;;;;;;9.00;4.47;;;;;;;17.84;83.63;101985.66;5074344;28;20040;-80
2022/07/22 07:27:53;;;;;;;11.95;4.63;;;;;;;17.97;83.18;101984.63;5080309;28;20081;-81
2022/07/22 07:30:18;;;;;;;10.77;5.18;;;;;;;17.98;81.87;101980.81;5080724;28;20032;-80
2022/07/22 07:32:43;;;;;;;8.82;4.57;;;;;;;17.98;81.62;101980.81;5080251;28;20371;-81
2022/07/22 07:35:09;;;;;;;8.68;4.22;;;;;;;17.89;79.26;101983.00;5080150;28;20123;-82
2022/07/22 07:37:35;;;;;;;9.65;4.57;;;;;;;17.78;79.11;101975.59;5053603;28;20369;-79
2022/07/22 07:40:00;;;;;;;9.10;3.83;;;;;;;17.76;75.45;101987.84;5079954;28;20786;-79
2022/07/22 07:42:26;;;;;;;7.47;4.07;;;;;;;17.72;77.55;101984.75;5079003;28;20043;-81
2022/07/22 07:44:51;;;;;;;7.90;4.30;;;;;;;17.86;77.58;101977.19;5080376;28;20039;-79
2022/07/22 07:47:20;;;;;;;8.90;4.60;;;;;;;18.19;77.31;101981.34;5079981;28;20036;-80
2022/07/22 07:49:47;;;;;;;11.30;5.15;;;;;;;18.46;76.12;101984.50;5080221;28;20074;-81
2022/07/22 07:52:13;;;;;;;8.38;3.90;;;;;;;18.58;76.29;101992.75;5079760;28;20039;-81
2022/07/22 07:54:40;;;;;;;5.30;3.20;;;;;;;18.61;74.59;101989.50;5079696;28;20059;-81
2022/07/22 07:57:06;;;;;;;7.45;3.80;;;;;;;18.70;73.42;101988.09;5079973;28;20780;-82
2022/07/22 07:59:32;;;;;;;8.48;3.53;;;;;;;18.86;73.79;101978.31;5078386;28;20044;-82
2022/07/22 08:01:57;;;;;;;3.53;2.15;;;;;;;18.57;71.55;101980.09;5079823;28;20035;-82
2022/07/22 08:04:23;;;;;;;4.47;2.50;;;;;;;18.31;70.28;101986.88;5061164;28;20058;-81
2022/07/22 08:06:48;;;;;;;4.97;2.08;;;;;;;18.63;68.88;101994.75;5079478;28;20032;-81
2022/07/22 08:09:14;;;;;;;6.28;2.47;;;;;;;18.75;70.67;101978.31;5079595;28;20040;-82
2022/07/22 08:11:39;;;;;;;5.68;2.55;;;;;;;19.13;71.68;101991.53;5079633;28;20119;-82
2022/07/22 08:14:04;;;;;;;5.57;2.15;;;;;;;19.36;70.29;101981.59;5079413;28;20479;-82
2022/07/22 08:16:30;;;;;;;3.22;1.90;;;;;;;19.43;68.30;101989.69;5079509;28;20028;-81
2022/07/22 08:18:55;;;;;;;4.03;2.25;;;;;;;19.25;61.97;101980.53;5079278;28;20039;-80
2022/07/22 08:21:20;;;;;;;4.00;2.20;;;;;;;19.23;64.05;101975.28;5079329;28;20032;-81
2022/07/22 08:23:46;;;;;;;5.00;2.08;;;;;;;19.53;68.18;101987.16;5079487;28;20031;-81
2022/07/22 08:26:11;;;;;;;6.30;2.55;;;;;;;19.49;66.40;101977.72;5059633;28;20036;-80
2022/07/22 08:28:37;;;;;;;3.83;2.03;;;;;;;19.46;65.55;101969.94;5079471;28;20036;-82
2022/07/22 08:31:02;;;;;;;4.35;2.10;;;;;;;19.68;65.89;101975.63;5079292;28;20032;-81
2022/07/22 08:33:27;;;;;;;4.50;1.63;;;;;;;19.71;65.02;101981.44;5078915;28;20040;-81
2022/07/22 08:35:54;;;;;;;1.95;1.70;;;;;;;19.70;62.53;101979.78;5078882;28;20055;-82
2022/07/22 08:38:19;;;;;;;4.25;2.00;;;;;;;19.90;63.64;101984.84;5078722;28;20032;-82
2022/07/22 08:40:45;;;;;;;4.45;2.20;;;;;;;19.75;65.02;101979.06;5079706;28;20452;-81
2022/07/22 08:43:10;;;;;;;5.53;2.15;;;;;;;19.74;65.77;101980.94;5078863;28;20196;-81
2022/07/22 08:45:35;;;;;;;4.90;2.10;;;;;;;19.64;63.82;101972.53;5058638;28;20168;-81
2022/07/22 08:48:03;;;;;;;9.50;2.33;;;;;;;19.87;64.18;101962.53;5078821;28;20484;-82
2022/07/22 08:50:30;;;;;;;5.15;2.38;;;;;;;19.88;63.41;101964.19;5078419;28;20080;-81
2022/07/22 08:52:56;;;;;;;3.17;2.00;;;;;;;19.51;60.83;101964.56;5078673;28;20035;-81
2022/07/22 08:55:21;;;;;;;5.68;2.30;;;;;;;19.57;60.59;101963.59;5060603;28;20040;-81
2022/07/22 08:57:48;;;;;;;7.22;2.10;;;;;;;19.65;62.42;101968.69;5078776;28;20036;-79
2022/07/22 09:00:21;;;;;;;4.38;2.45;;;;;;;19.84;60.83;101965.75;5079210;28;20369;-81
2022/07/22 09:02:47;;;;;;;4.30;2.42;;;;;;;19.99;61.18;101966.06;5077288;28;20046;-80
2022/07/22 09:05:15;;;;;;;4.80;2.30;;;;;;;20.19;58.80;101959.22;5078597;28;20361;-79
2022/07/22 09:07:43;;;;;;;3.67;2.10;;;;;;;20.49;59.78;101964.38;5084577;28;20054;-80
2022/07/22 09:10:11;;;;;;;4.75;2.35;;;;;;;20.77;61.68;101970.03;5089457;28;20032;-81
2022/07/22 09:12:55;;;;;;;6.60;2.60;;;;;;;20.70;61.15;101968.31;5078343;28;20032;-81
2022/07/22 09:15:35;;;;;;;5.50;2.30;;;;;;;20.68;61.23;101975.97;5078586;28;20035;-80
2022/07/22 09:18:01;;;;;;;5.18;2.30;;;;;;;20.52;62.22;101980.41;5060230;28;20620;-81
2022/07/22 09:20:27;;;;;;;4.20;2.42;;;;;;;20.52;62.32;101969.41;5078371;28;20087;-81
2022/07/22 09:22:53;;;;;;;5.68;2.35;;;;;;;20.68;62.53;101964.97;5077735;28;20137;-80
2022/07/22 09:25:23;;;;;;;3.42;2.50;;;;;;;20.76;60.53;101957.38;5070778;28;20149;-80
2022/07/22 09:27:50;;;;;;;7.63;2.83;;;;;;;21.19;60.96;101964.03;5078209;28;20032;-82
2022/07/22 09:30:19;;;;;;;5.15;2.67;;;;;;;21.57;61.66;101959.53;5059261;28;21023;-81
2022/07/22 09:32:44;;;;;;;4.80;2.85;;;;;;;21.31;59.99;101958.34;5079447;28;20525;-81
2022/07/22 09:35:11;;;;;;;5.35;2.92;;;;;;;21.31;59.31;101964.72;5077185;28;20170;-82
2022/07/22 09:37:58;;;;;;;6.75;2.90;;;;;;;21.81;58.36;101964.75;5078589;28;20032;-81
2022/07/22 09:40:26;;;;;;;4.95;2.60;;;;;;;21.81;57.66;101954.53;5076646;28;20042;-82
2022/07/22 09:42:57;;;;;;;7.10;2.83;;;;;;;21.99;58.42;101956.09;5058236;28;20043;-82
2022/07/22 09:45:25;;;;;;;5.20;2.90;;;;;;;21.92;58.57;101953.53;5070170;28;20036;-81
2022/07/22 09:47:51;;;;;;;7.05;3.20;;;;;;;21.88;59.32;101946.03;5084075;28;20039;-82
2022/07/22 09:50:23;;;;;;;5.22;2.80;;;;;;;22.17;54.45;101941.06;5086862;28;20035;-80
2022/07/22 09:52:50;;;;;;;6.55;2.97;;;;;;;22.60;55.65;101941.09;5070493;28;20360;-80
2022/07/22 09:55:18;;;;;;;5.20;2.65;;;;;;;23.19;58.01;101944.78;5086260;28;20091;-81
2022/07/22 09:57:44;;;;;;;5.72;2.80;;;;;;;23.32;52.66;101941.47;5085895;28;20035;-82
2022/07/22 10:00:11;;;;;;;6.18;2.67;;;;;;;23.40;52.11;101945.66;5094890;28;20036;-81
2022/07/22 10:02:47;;;;;;;3.92;2.50;;;;;;;23.50;51.14;101947.63;5081075;28;20032;-83
2022/07/22 10:05:25;;;;;;;5.80;2.97;;;;;;;23.88;50.73;101935.28;5081729;28;20099;-80
2022/07/22 10:07:52;;;;;;;4.85;2.80;;;;;;;24.39;52.01;101942.72;5081577;28;20086;-84
2022/07/22 10:10:20;;;;;;;3.50;2.67;;;;;;;24.23;50.62;101941.09;5081756;28;20035;-81
2022/07/22 10:12:48;;;;;;;6.75;2.90;;;;;;;24.37;52.31;101944.09;5084100;28;20473;-80
2022/07/22 10:15:13;;;;;;;5.57;2.70;;;;;;;24.41;47.44;101957.13;5070071;28;20249;-82
2022/07/22 10:17:42;;;;;;;5.22;3.58;;;;;;;23.53;50.00;101952.63;5084680;28;20036;-81
2022/07/22 10:20:10;;;;;;;6.70;2.90;;;;;;;23.74;53.14;101962.63;5085230;28;20036;-79
2022/07/22 10:22:38;;;;;;;3.75;3.05;;;;;;;23.36;55.28;101953.66;5087963;28;20031;-79
2022/07/22 10:25:08;;;;;;;6.90;3.10;;;;;;;23.31;53.17;101964.72;5086296;28;20020;-79
2022/07/22 10:27:48;;;;;;;5.20;3.30;;;;;;;23.35;53.10;101959.47;5086800;28;20101;-82
2022/07/22 10:30:19;;;;;;;5.15;3.22;;;;;;;22.72;51.99;101954.72;5093660;28;20126;-82
2022/07/22 10:32:45;;;;;;;5.13;3.25;;;;;;;22.71;52.81;101959.44;5081203;28;20024;-81
2022/07/22 10:35:10;;;;;;;4.18;3.30;;;;;;;22.82;52.44;101953.94;5081007;28;20123;-81
2022/07/22 10:37:45;;;;;;;8.25;3.20;;;;;;;23.05;49.02;101952.69;5080966;28;20066;-81
2022/07/22 10:40:25;;;;;;;5.53;3.10;;;;;;;23.84;53.26;101952.66;5080980;28;20043;-82
2022/07/22 10:42:56;;;;;;;4.72;3.00;;;;;;;23.89;49.99;101953.53;5081273;28;20027;-80
2022/07/22 10:45:49;;;;;;;5.57;3.13;;;;;;;24.30;47.48;101961.00;5080988;28;20188;-80
2022/07/22 10:48:20;;;;;;;5.03;3.05;;;;;;;23.97;47.18;101956.88;5068650;28;20044;-81
2022/07/22 10:50:49;;;;;;;4.45;2.90;;;;;;;24.56;48.84;101955.44;5080639;28;20166;-81
2022/07/22 10:53:24;;;;;;;5.63;2.90;;;;;;;25.11;48.09;101945.31;5081884;28;20035;-82
2022/07/22 10:56:20;;;;;;;4.35;3.05;;;;;;;25.21;48.68;101946.41;5080619;28;20040;-83
2022/07/22 10:58:48;;;;;;;7.97;3.05;;;;;;;25.19;45.77;101941.13;5063510;28;20040;-81
2022/07/22 11:01:16;;;;;;;11.13;3.13;;;;;;;25.26;47.80;101922.22;5081157;28;20036;-82
2022/07/22 11:03:44;;;;;;;6.53;2.90;;;;;;;25.01;47.43;101928.75;5080222;28;20052;-81
2022/07/22 11:06:25;;;;;;;4.53;3.25;;;;;;;24.85;48.53;101924.38;5080591;28;20452;-81
2022/07/22 11:08:53;;;;;;;4.07;2.70;;;;;;;24.27;47.97;101931.97;5079927;28;20115;-80
2022/07/22 11:11:31;;;;;;;6.55;3.00;;;;;;;23.89;49.73;101933.31;5062921;28;20462;-79
2022/07/22 11:13:57;;;;;;;4.38;3.00;;;;;;;23.33;48.87;101923.78;5079858;28;21420;-79